createdAt,value
2022-11-17T00:00:42.640Z,10.50
2022-11-17T00:03:16.448Z,10.50
2022-11-17T00:05:44.719Z,10.50
2022-11-17T00:08:11.933Z,10.50
2022-11-17T00:10:38.886Z,10.50
2022-11-17T00:13:24.541Z,10.50
2022-11-17T00:15:51.467Z,10.50
2022-11-17T00:18:36.837Z,10.50
2022-11-17T00:21:19.795Z,10.40
2022-11-17T00:23:47.428Z,10.40
2022-11-17T00:26:19.182Z,10.40
2022-11-17T00:28:46.255Z,10.40
2022-11-17T00:31:33.280Z,10.40
2022-11-17T00:34:07.023Z,10.40
2022-11-17T00:36:49.241Z,10.40
2022-11-17T00:39:17.595Z,10.40
2022-11-17T00:41:44.817Z,10.40
2022-11-17T00:44:12.291Z,10.40
2022-11-17T00:46:40.232Z,10.40
2022-11-17T00:49:08.624Z,10.40
2022-11-17T00:51:36.324Z,10.40
2022-11-17T00:54:04.747Z,10.40
2022-11-17T00:56:32.056Z,10.30
2022-11-17T00:58:59.047Z,10.30
2022-11-17T01:01:26.561Z,10.30
2022-11-17T01:04:03.156Z,10.30
2022-11-17T01:06:44.538Z,10.30
2022-11-17T01:09:20.640Z,10.30
2022-11-17T01:11:49.035Z,10.20
2022-11-17T01:14:19.440Z,10.20
2022-11-17T01:16:46.857Z,10.20
2022-11-17T01:19:17.697Z,10.20
2022-11-17T01:21:45.464Z,10.20
2022-11-17T01:24:15.138Z,10.10
2022-11-17T01:26:43.338Z,10.10
2022-11-17T01:29:13.936Z,10.10
2022-11-17T01:31:45.541Z,10.10
2022-11-17T01:34:13.421Z,10.10
2022-11-17T01:37:08.824Z,10.10
2022-11-17T01:39:35.725Z,10.10
2022-11-17T01:42:12.978Z,10.10
2022-11-17T01:45:01.574Z,10.10
2022-11-17T01:47:35.686Z,10.00
2022-11-17T01:50:13.062Z,10.00
2022-11-17T01:52:41.165Z,10.00
2022-11-17T01:55:10.697Z,10.00
2022-11-17T01:57:49.239Z,10.00
2022-11-17T02:00:16.857Z,9.90
2022-11-17T02:02:45.311Z,9.90
2022-11-17T02:05:12.189Z,9.90
2022-11-17T02:07:42.261Z,9.90
2022-11-17T02:10:09.474Z,9.90
2022-11-17T02:12:37.080Z,9.90
2022-11-17T02:15:05.553Z,9.90
2022-11-17T02:17:39.277Z,10.00
2022-11-17T02:20:06.603Z,9.90
2022-11-17T02:22:52.268Z,9.90
2022-11-17T02:25:46.700Z,9.90
2022-11-17T02:28:26.488Z,9.90
2022-11-17T02:30:59.386Z,9.90
2022-11-17T02:33:47.635Z,9.80
2022-11-17T02:36:38.538Z,9.80
2022-11-17T02:39:16.814Z,9.80
2022-11-17T02:41:52.437Z,9.70
2022-11-17T02:44:37.235Z,9.70
2022-11-17T02:47:17.387Z,9.70
2022-11-17T02:50:01.291Z,9.70
2022-11-17T02:52:30.176Z,9.60
2022-11-17T02:55:09.556Z,9.60
2022-11-17T02:57:39.535Z,9.60
2022-11-17T03:00:14.542Z,9.60
2022-11-17T03:02:54.442Z,9.60
2022-11-17T03:05:29.988Z,9.60
2022-11-17T03:08:02.814Z,9.60
2022-11-17T03:10:51.041Z,9.60
2022-11-17T03:13:49.133Z,9.60
2022-11-17T03:16:47.932Z,9.70
2022-11-17T03:19:28.016Z,9.60
2022-11-17T03:22:00.806Z,9.70
2022-11-17T03:24:35.842Z,9.70
2022-11-17T03:27:12.674Z,9.70
2022-11-17T03:29:44.518Z,9.70
2022-11-17T03:32:13.610Z,9.70
2022-11-17T03:34:49.158Z,9.70
2022-11-17T03:37:19.451Z,9.70
2022-11-17T03:39:55.333Z,9.70
2022-11-17T03:42:29.557Z,9.70
2022-11-17T03:45:06.353Z,9.70
2022-11-17T03:47:35.723Z,9.70
2022-11-17T03:50:14.721Z,9.70
2022-11-17T03:52:42.589Z,9.70
2022-11-17T03:55:10.307Z,9.70
2022-11-17T03:58:01.137Z,9.70
2022-11-17T04:00:28.222Z,9.60
2022-11-17T04:02:58.655Z,9.60
2022-11-17T04:05:25.735Z,9.60
2022-11-17T04:07:52.689Z,9.60
2022-11-17T04:10:22.395Z,9.50
2022-11-17T04:13:08.295Z,9.50
2022-11-17T04:15:53.884Z,9.50
2022-11-17T04:18:21.685Z,9.50
2022-11-17T04:20:54.170Z,9.50
2022-11-17T04:23:21.577Z,9.50
2022-11-17T04:26:09.900Z,9.50
2022-11-17T04:28:40.149Z,9.50
2022-11-17T04:31:22.837Z,9.50
2022-11-17T04:33:51.497Z,9.50
2022-11-17T04:36:21.382Z,9.60
2022-11-17T04:38:53.179Z,9.60
2022-11-17T04:41:40.882Z,9.50
2022-11-17T04:44:09.712Z,9.50
2022-11-17T04:46:38.289Z,9.50
2022-11-17T04:49:06.196Z,9.50
2022-11-17T04:51:34.308Z,9.50
2022-11-17T04:54:02.236Z,9.50
2022-11-17T04:56:29.873Z,9.50
2022-11-17T04:58:57.390Z,9.40
2022-11-17T05:01:25.653Z,9.40
2022-11-17T05:03:53.836Z,9.40
2022-11-17T05:06:23.203Z,9.40
2022-11-17T05:08:51.000Z,9.40
2022-11-17T05:11:36.979Z,9.30
2022-11-17T05:14:03.931Z,9.30
2022-11-17T05:16:49.569Z,9.30
2022-11-17T05:19:22.743Z,9.30
2022-11-17T05:21:50.152Z,9.30
2022-11-17T05:24:17.972Z,9.30
2022-11-17T05:26:46.886Z,9.20
2022-11-17T05:29:16.149Z,9.20
2022-11-17T05:31:43.481Z,9.20
2022-11-17T05:34:12.609Z,9.10
2022-11-17T05:36:40.091Z,9.10
2022-11-17T05:39:08.180Z,9.10
2022-11-17T05:41:35.313Z,9.10
2022-11-17T05:44:02.341Z,9.10
2022-11-17T05:46:29.291Z,9.00
2022-11-17T05:48:56.379Z,9.10
2022-11-17T05:51:24.382Z,8.90
2022-11-17T05:53:51.534Z,8.90
2022-11-17T05:56:24.315Z,8.90
2022-11-17T05:59:05.065Z,8.80
2022-11-17T06:01:35.577Z,8.80
2022-11-17T06:04:04.428Z,8.70
2022-11-17T06:06:33.978Z,8.70
2022-11-17T06:09:00.948Z,8.70
2022-11-17T06:11:27.899Z,8.70
2022-11-17T06:13:54.912Z,8.70
2022-11-17T06:16:25.653Z,8.70
2022-11-17T06:19:01.090Z,8.60
2022-11-17T06:21:43.087Z,8.60
2022-11-17T06:24:15.350Z,8.60
2022-11-17T06:26:42.942Z,8.60
2022-11-17T06:29:11.264Z,8.60
2022-11-17T06:31:40.750Z,8.60
2022-11-17T06:34:08.109Z,8.60
2022-11-17T06:36:35.147Z,8.60
2022-11-17T06:39:02.189Z,8.60
2022-11-17T06:41:29.293Z,8.60
2022-11-17T06:43:56.339Z,8.60
2022-11-17T06:46:23.290Z,8.60
2022-11-17T06:48:50.246Z,8.60
2022-11-17T06:51:17.234Z,8.60
2022-11-17T06:53:44.184Z,8.60
2022-11-17T06:56:11.751Z,8.60
2022-11-17T06:58:41.388Z,8.60
2022-11-17T07:01:13.476Z,8.60
2022-11-17T07:03:43.044Z,8.60
2022-11-17T07:06:11.362Z,8.50
2022-11-17T07:08:39.721Z,8.50
2022-11-17T07:11:12.731Z,8.60
2022-11-17T07:13:40.059Z,8.60
2022-11-17T07:16:09.796Z,8.60
2022-11-17T07:18:37.998Z,8.50
2022-11-17T07:21:07.410Z,8.60
2022-11-17T07:23:35.796Z,8.60
2022-11-17T07:26:03.512Z,8.60
2022-11-17T07:28:30.847Z,8.60
2022-11-17T07:31:02.717Z,8.60
2022-11-17T07:33:29.714Z,8.60
2022-11-17T07:35:56.686Z,8.60
2022-11-17T07:38:23.687Z,8.60
2022-11-17T07:40:50.919Z,8.60
2022-11-17T07:43:17.885Z,8.60
2022-11-17T07:45:44.938Z,8.60
2022-11-17T07:48:11.892Z,8.70
2022-11-17T07:50:41.012Z,8.70
2022-11-17T07:53:08.016Z,8.70
2022-11-17T07:55:35.087Z,8.80
2022-11-17T07:58:02.241Z,8.80
2022-11-17T08:00:31.105Z,8.80
2022-11-17T08:03:03.592Z,8.80
2022-11-17T08:05:32.369Z,8.90
2022-11-17T08:08:00.525Z,8.90
2022-11-17T08:10:31.385Z,8.90
2022-11-17T08:13:01.582Z,8.90
2022-11-17T08:15:29.585Z,8.90
2022-11-17T08:17:58.407Z,9.00
2022-11-17T08:20:26.285Z,9.00
2022-11-17T08:22:53.794Z,9.00
2022-11-17T08:25:22.566Z,9.00
2022-11-17T08:27:52.068Z,9.00
2022-11-17T08:30:20.597Z,9.10
2022-11-17T08:32:52.665Z,9.00
2022-11-17T08:35:22.348Z,9.00
2022-11-17T08:37:49.400Z,9.00
2022-11-17T08:40:18.134Z,9.00
2022-11-17T08:42:45.835Z,9.00
2022-11-17T08:45:13.404Z,9.10
2022-11-17T08:47:40.593Z,9.00
2022-11-17T08:50:08.094Z,9.10
2022-11-17T08:52:35.258Z,9.00
2022-11-17T08:55:02.838Z,9.00
2022-11-17T08:57:31.532Z,9.00
2022-11-17T08:59:58.855Z,9.10
2022-11-17T09:02:26.364Z,9.10
2022-11-17T09:04:53.618Z,9.10
2022-11-17T09:07:20.640Z,9.10
2022-11-17T09:09:48.638Z,9.10
2022-11-17T09:12:16.098Z,9.10
2022-11-17T09:14:43.109Z,9.10
2022-11-17T09:17:10.087Z,9.10
2022-11-17T09:19:37.115Z,9.10
2022-11-17T09:22:04.128Z,9.00
2022-11-17T09:24:31.086Z,9.00
2022-11-17T09:26:58.019Z,9.00
2022-11-17T09:29:25.043Z,9.00
2022-11-17T09:31:52.265Z,9.00
2022-11-17T09:34:19.413Z,8.90
2022-11-17T09:36:49.042Z,8.90
2022-11-17T09:39:16.589Z,8.80
2022-11-17T09:41:50.353Z,8.90
2022-11-17T09:44:29.039Z,8.80
2022-11-17T09:47:21.073Z,8.80
2022-11-17T09:49:58.963Z,8.70
2022-11-17T09:52:46.229Z,8.70
2022-11-17T09:55:38.638Z,8.70
2022-11-17T09:58:34.951Z,8.70
2022-11-17T10:01:02.491Z,8.80
2022-11-17T10:03:42.081Z,8.80
2022-11-17T10:06:17.130Z,8.80
2022-11-17T10:08:53.281Z,8.90
2022-11-17T10:11:32.079Z,8.90
2022-11-17T10:14:12.116Z,8.90
2022-11-17T10:16:42.226Z,9.00
2022-11-17T10:19:21.683Z,9.00
2022-11-17T10:21:52.656Z,9.00
2022-11-17T10:24:39.777Z,9.00
2022-11-17T10:27:18.726Z,9.10
2022-11-17T10:30:01.132Z,9.10
2022-11-17T10:32:35.958Z,9.10
2022-11-17T10:35:18.304Z,9.10
2022-11-17T10:38:06.753Z,9.10
2022-11-17T10:40:48.732Z,9.10
2022-11-17T10:43:17.011Z,9.10
2022-11-17T10:45:56.767Z,9.10
2022-11-17T10:48:32.102Z,9.10
2022-11-17T10:51:21.031Z,9.10
2022-11-17T10:54:19.534Z,9.10
2022-11-17T10:56:56.115Z,9.10
2022-11-17T10:59:23.087Z,9.10
2022-11-17T11:01:53.228Z,9.10
2022-11-17T11:04:29.496Z,9.10
2022-11-17T11:07:35.534Z,9.10
2022-11-17T11:10:07.211Z,9.20
2022-11-17T11:13:06.401Z,9.20
2022-11-17T11:15:35.640Z,9.20
2022-11-17T11:18:11.487Z,9.10
2022-11-17T11:20:47.899Z,9.10
2022-11-17T11:23:30.303Z,9.10
2022-11-17T11:26:17.120Z,9.20
2022-11-17T11:29:28.621Z,9.20
2022-11-17T11:32:10.641Z,9.20
2022-11-17T11:35:16.006Z,9.20
2022-11-17T11:37:59.540Z,9.20
2022-11-17T11:40:38.628Z,9.30
2022-11-17T11:43:28.043Z,9.30
2022-11-17T11:46:08.812Z,9.40
2022-11-17T11:48:40.081Z,9.40
2022-11-17T11:51:21.009Z,9.40
2022-11-17T11:54:04.313Z,9.40
2022-11-17T11:56:35.199Z,9.40
2022-11-17T11:59:07.437Z,9.30
2022-11-17T12:01:44.278Z,9.20
2022-11-17T12:04:34.830Z,9.20
2022-11-17T12:07:26.832Z,9.20
2022-11-17T12:10:03.734Z,9.20
2022-11-17T12:12:35.293Z,9.20
2022-11-17T12:15:18.824Z,9.30
2022-11-17T12:18:02.086Z,9.20
2022-11-17T12:20:31.888Z,9.30
2022-11-17T12:23:09.482Z,9.30
2022-11-17T12:25:45.929Z,9.30
2022-11-17T12:28:46.127Z,9.30
2022-11-17T12:31:25.728Z,9.30
2022-11-17T12:33:52.663Z,9.30
2022-11-17T12:36:33.519Z,9.30
2022-11-17T12:39:07.158Z,9.30
2022-11-17T12:41:49.655Z,9.30
2022-11-17T12:44:38.382Z,9.30
2022-11-17T12:47:21.600Z,9.40
2022-11-17T12:49:57.851Z,9.40
2022-11-17T12:52:37.114Z,9.40
2022-11-17T12:55:15.149Z,9.30
2022-11-17T12:57:47.944Z,9.40
2022-11-17T13:00:18.119Z,9.40
2022-11-17T13:02:58.950Z,9.50
2022-11-17T13:05:28.918Z,9.50
2022-11-17T13:08:13.975Z,9.60
2022-11-17T13:10:41.806Z,9.60
2022-11-17T13:13:23.987Z,9.70
2022-11-17T13:15:58.765Z,9.70
2022-11-17T13:18:31.827Z,9.80
2022-11-17T13:21:00.586Z,9.80
2022-11-17T13:23:32.881Z,9.90
2022-11-17T13:26:37.881Z,9.90
2022-11-17T13:29:14.967Z,9.90
2022-11-17T13:31:42.017Z,9.90
2022-11-17T13:34:21.288Z,10.00
2022-11-17T13:36:59.548Z,10.00
2022-11-17T13:39:28.115Z,10.00
2022-11-17T13:41:56.488Z,10.00
2022-11-17T13:44:27.020Z,10.00
2022-11-17T13:46:54.278Z,10.00
2022-11-17T13:49:50.484Z,10.10
2022-11-17T13:52:40.461Z,10.10
2022-11-17T13:55:17.732Z,10.10
2022-11-17T13:58:02.782Z,10.20
2022-11-17T14:00:31.425Z,10.10
2022-11-17T14:03:04.808Z,10.20
2022-11-17T14:05:33.760Z,10.20
2022-11-17T14:08:21.486Z,10.20
2022-11-17T14:10:48.923Z,10.20
2022-11-17T14:13:24.675Z,10.20
2022-11-17T14:15:57.398Z,10.30
2022-11-17T14:18:36.041Z,10.30
2022-11-17T14:21:10.900Z,10.30
2022-11-17T14:23:38.572Z,10.30
2022-11-17T14:26:05.742Z,10.30
2022-11-17T14:28:32.873Z,10.30
2022-11-17T14:30:59.921Z,10.30
2022-11-17T14:33:27.079Z,10.20
2022-11-17T14:35:59.489Z,10.30
2022-11-17T14:38:26.600Z,10.20
2022-11-17T14:40:53.843Z,10.30
2022-11-17T14:43:21.925Z,10.30
2022-11-17T14:45:50.136Z,10.30
2022-11-17T14:48:19.330Z,10.30
2022-11-17T14:50:47.327Z,10.30
2022-11-17T14:53:14.601Z,10.30
2022-11-17T14:55:41.553Z,10.30
2022-11-17T14:58:09.970Z,10.30
2022-11-17T15:00:37.321Z,10.40
2022-11-17T15:03:04.631Z,10.30
2022-11-17T15:05:31.638Z,10.30
2022-11-17T15:07:58.683Z,10.30
2022-11-17T15:10:25.690Z,10.20
2022-11-17T15:12:52.650Z,10.20
2022-11-17T15:15:19.773Z,10.20
2022-11-17T15:17:46.763Z,10.10
2022-11-17T15:20:13.787Z,10.10
2022-11-17T15:22:40.970Z,10.10
2022-11-17T15:25:08.489Z,10.10
2022-11-17T15:27:35.462Z,10.10
2022-11-17T15:30:02.468Z,10.10
2022-11-17T15:32:29.837Z,10.10
2022-11-17T15:34:56.772Z,10.10
2022-11-17T15:37:23.757Z,10.10
2022-11-17T15:39:50.702Z,10.10
2022-11-17T15:42:17.791Z,10.10
2022-11-17T15:44:44.786Z,10.10
2022-11-17T15:47:11.762Z,10.20
2022-11-17T15:49:38.713Z,10.20
2022-11-17T15:52:05.786Z,10.30
2022-11-17T15:54:32.922Z,10.30
2022-11-17T15:57:01.500Z,10.30
2022-11-17T15:59:28.552Z,10.30
2022-11-17T16:01:55.969Z,10.30
2022-11-17T16:04:22.915Z,10.40
2022-11-17T16:06:50.071Z,10.40
2022-11-17T16:09:17.695Z,10.40
2022-11-17T16:11:45.437Z,10.40
2022-11-17T16:14:14.801Z,10.40
2022-11-17T16:16:41.979Z,10.40
2022-11-17T16:19:09.149Z,10.50
2022-11-17T16:21:36.178Z,10.40
2022-11-17T16:24:03.395Z,10.50
2022-11-17T16:26:30.986Z,10.50
2022-11-17T16:29:04.066Z,10.50
2022-11-17T16:31:33.519Z,10.50
2022-11-17T16:34:02.870Z,10.50
2022-11-17T16:36:36.187Z,10.50
2022-11-17T16:39:06.284Z,10.50
2022-11-17T16:41:36.041Z,10.50
2022-11-17T16:44:11.726Z,10.50
2022-11-17T16:46:41.215Z,10.50
2022-11-17T16:49:11.021Z,10.50
2022-11-17T16:51:38.196Z,10.50
2022-11-17T16:54:06.568Z,10.50
2022-11-17T16:56:34.886Z,10.50
2022-11-17T16:59:02.537Z,10.50
2022-11-17T17:01:32.468Z,10.50
2022-11-17T17:04:01.432Z,10.60
2022-11-17T17:06:29.376Z,10.60
2022-11-17T17:08:58.254Z,10.60
2022-11-17T17:11:25.754Z,10.60
2022-11-17T17:13:52.930Z,10.60
2022-11-17T17:16:20.982Z,10.60
2022-11-17T17:18:48.535Z,10.60
2022-11-17T17:21:18.554Z,10.90
2022-11-17T17:23:46.138Z,10.60
2022-11-17T17:26:17.490Z,10.60
2022-11-17T17:28:46.632Z,10.60
2022-11-17T17:31:21.037Z,10.70
2022-11-17T17:33:50.504Z,10.60
2022-11-17T17:36:20.637Z,10.60
2022-11-17T17:38:53.319Z,10.70
2022-11-17T17:41:26.755Z,10.60
2022-11-17T17:44:02.670Z,10.60
2022-11-17T17:46:31.447Z,10.60
2022-11-17T17:48:58.832Z,10.60
2022-11-17T17:51:28.190Z,10.50
2022-11-17T17:53:58.027Z,10.40
2022-11-17T17:56:25.398Z,10.40
2022-11-17T17:58:55.379Z,10.40
2022-11-17T18:01:27.929Z,10.30
2022-11-17T18:04:07.382Z,10.30
2022-11-17T18:06:41.243Z,10.20
2022-11-17T18:09:10.664Z,10.20
2022-11-17T18:11:40.607Z,10.20
2022-11-17T18:14:09.865Z,10.10
2022-11-17T18:16:36.854Z,10.10
2022-11-17T18:19:06.570Z,10.10
2022-11-17T18:21:33.821Z,10.20
2022-11-17T18:24:02.580Z,10.10
2022-11-17T18:26:36.444Z,10.00
2022-11-17T18:29:06.647Z,10.00
2022-11-17T18:31:35.973Z,10.00
2022-11-17T18:34:05.859Z,10.00
2022-11-17T18:36:34.746Z,9.90
2022-11-17T18:39:02.078Z,9.90
2022-11-17T18:41:34.057Z,9.90
2022-11-17T18:44:02.260Z,9.90
2022-11-17T18:46:32.196Z,9.90
2022-11-17T18:49:00.027Z,9.90
2022-11-17T18:51:29.466Z,9.80
2022-11-17T18:53:58.663Z,9.80
2022-11-17T18:56:27.895Z,9.80
2022-11-17T18:58:55.325Z,9.80
2022-11-17T19:01:24.583Z,9.80
2022-11-17T19:03:53.619Z,9.80
2022-11-17T19:06:22.726Z,9.80
2022-11-17T19:08:50.896Z,9.80
2022-11-17T19:11:20.299Z,9.70
2022-11-17T19:13:48.237Z,9.70
2022-11-17T19:16:17.878Z,9.70
2022-11-17T19:18:46.866Z,9.80
2022-11-17T19:21:19.013Z,9.80
2022-11-17T19:23:51.404Z,9.80
2022-11-17T19:26:21.090Z,9.90
2022-11-17T19:28:48.549Z,9.90
2022-11-17T19:31:18.633Z,9.90
2022-11-17T19:33:47.352Z,9.90
2022-11-17T19:36:20.035Z,9.90
2022-11-17T19:38:52.309Z,9.90
2022-11-17T19:41:22.148Z,9.90
2022-11-17T19:43:53.590Z,9.90
2022-11-17T19:46:21.623Z,10.00
2022-11-17T19:48:48.891Z,9.90
2022-11-17T19:51:19.985Z,9.90
2022-11-17T19:53:51.721Z,9.90
2022-11-17T19:56:19.415Z,9.90
2022-11-17T19:58:47.639Z,9.90
2022-11-17T20:01:29.614Z,9.80
2022-11-17T20:03:59.175Z,9.80
2022-11-17T20:06:29.322Z,9.80
2022-11-17T20:08:57.534Z,9.70
2022-11-17T20:11:27.021Z,9.60
2022-11-17T20:13:55.304Z,9.70
2022-11-17T20:16:25.071Z,9.70
2022-11-17T20:18:54.564Z,9.70
2022-11-17T20:21:22.056Z,9.70
2022-11-17T20:23:49.523Z,9.70
2022-11-17T20:26:25.005Z,9.60
2022-11-17T20:28:52.484Z,9.60
2022-11-17T20:31:22.601Z,9.60
2022-11-17T20:33:49.817Z,9.60
2022-11-17T20:36:19.704Z,9.60
2022-11-17T20:38:51.721Z,9.60
2022-11-17T20:41:20.944Z,9.50
2022-11-17T20:43:50.066Z,9.50
2022-11-17T20:46:17.764Z,9.50
2022-11-17T20:48:45.372Z,9.50
2022-11-17T20:51:15.550Z,9.50
2022-11-17T20:53:43.032Z,9.50
2022-11-17T20:56:12.460Z,9.60
2022-11-17T20:58:39.868Z,9.60
2022-11-17T21:01:18.173Z,9.60
2022-11-17T21:03:45.831Z,9.60
2022-11-17T21:06:14.090Z,9.60
2022-11-17T21:08:43.060Z,9.60
2022-11-17T21:11:33.609Z,9.60
2022-11-17T21:14:00.886Z,9.60
2022-11-17T21:16:27.959Z,9.70
2022-11-17T21:18:55.046Z,9.70
2022-11-17T21:21:21.978Z,9.70
2022-11-17T21:23:53.896Z,9.70
2022-11-17T21:26:20.967Z,9.80
2022-11-17T21:28:47.948Z,9.80
2022-11-17T21:31:23.856Z,9.80
2022-11-17T21:33:59.396Z,9.80
2022-11-17T21:36:28.324Z,9.80
2022-11-17T21:38:55.996Z,9.80
2022-11-17T21:41:29.072Z,9.90
2022-11-17T21:43:59.457Z,9.90
2022-11-17T21:46:27.781Z,10.00
2022-11-17T21:48:56.871Z,9.90
2022-11-17T21:51:35.068Z,10.00
2022-11-17T21:54:04.478Z,10.00
2022-11-17T21:56:32.156Z,10.00
2022-11-17T21:59:01.419Z,10.10
2022-11-17T22:01:29.282Z,10.00
2022-11-17T22:03:56.537Z,10.10
2022-11-17T22:06:25.079Z,10.10
2022-11-17T22:08:53.025Z,10.10
2022-11-17T22:11:35.523Z,10.10
2022-11-17T22:14:05.852Z,10.10
2022-11-17T22:16:33.506Z,10.10
2022-11-17T22:19:00.651Z,10.00
2022-11-17T22:21:27.641Z,10.00
2022-11-17T22:23:54.759Z,10.00
2022-11-17T22:26:22.283Z,10.00
2022-11-17T22:28:53.718Z,10.00
2022-11-17T22:31:21.203Z,10.00
2022-11-17T22:33:49.505Z,10.00
2022-11-17T22:36:16.732Z,10.00
2022-11-17T22:38:44.657Z,10.00
2022-11-17T22:41:13.429Z,10.00
2022-11-17T22:43:40.447Z,10.00
2022-11-17T22:46:11.223Z,9.90
2022-11-17T22:48:38.662Z,9.90
2022-11-17T22:51:06.425Z,9.90
2022-11-17T22:53:34.175Z,9.90
2022-11-17T22:56:03.327Z,9.90
2022-11-17T22:58:31.196Z,9.90
2022-11-17T23:01:05.152Z,10.00
2022-11-17T23:03:32.551Z,9.90
2022-11-17T23:06:04.240Z,9.90
2022-11-17T23:08:32.075Z,9.90
2022-11-17T23:11:35.055Z,9.90
2022-11-17T23:13:50.910Z,9.90
2022-11-17T23:16:18.034Z,9.80
2022-11-17T23:18:45.060Z,9.80
2022-11-17T23:21:12.105Z,9.90
2022-11-17T23:23:40.638Z,9.90
2022-11-17T23:26:10.229Z,9.90
2022-11-17T23:28:42.117Z,9.90
2022-11-17T23:31:14.191Z,9.90
2022-11-17T23:33:46.094Z,9.90
2022-11-17T23:36:18.148Z,9.90
2022-11-17T23:38:45.529Z,9.90
2022-11-17T23:41:14.666Z,9.90
2022-11-17T23:43:42.549Z,9.90
2022-11-17T23:46:10.667Z,9.90
2022-11-17T23:48:37.882Z,9.90
2022-11-17T23:51:15.905Z,9.90
2022-11-17T23:53:43.199Z,9.90
2022-11-17T23:56:11.006Z,9.90
2022-11-17T23:58:38.366Z,9.90
